Time;durP1;ratioP1;P1;durP2;ratioP2;P2;SDS_P1;SDS_P2;PMS_P1;PMS_P2;Temp;Humidity;BMP_temperature;BMP_pressure;BME280_temperature;BME280_humidity;BME280_pressure;Samples;Min_cycle;Max_cycle;Signal;HPM_P1;HPM_P2
2022/12/26 00:01:52;;;;;;;6.67;2.10;;;;;;;7.58;66.83;100010.56;6039739;23;20146;-88
2022/12/26 00:04:17;;;;;;;5.53;2.17;;;;;;;7.63;67.05;100019.13;6039672;23;20533;-87
2022/12/26 00:06:43;;;;;;;4.93;1.77;;;;;;;7.69;66.70;100016.38;6039721;23;20162;-88
2022/12/26 00:09:09;;;;;;;5.83;2.20;;;;;;;7.93;66.24;100011.34;6039529;23;20178;-87
2022/12/26 00:11:35;;;;;;;6.57;2.57;;;;;;;7.91;65.95;100012.28;6039582;23;20178;-88
2022/12/26 00:14:05;;;;;;;9.23;2.40;;;;;;;7.91;65.49;100020.94;6039653;23;20229;-88
2022/12/26 00:16:31;;;;;;;5.63;2.60;;;;;;;7.81;65.75;100016.88;6040413;23;20155;-88
2022/12/26 00:18:56;;;;;;;5.00;2.40;;;;;;;7.66;65.98;100024.28;6040242;23;20158;-88
2022/12/26 00:21:25;;;;;;;5.80;2.70;;;;;;;7.68;66.26;100031.16;6038394;23;20164;-88
2022/12/26 00:23:52;;;;;;;5.43;2.80;;;;;;;7.78;66.23;100035.22;6039524;23;20164;-87
2022/12/26 00:26:20;;;;;;;6.33;2.13;;;;;;;7.96;65.78;100033.91;6039524;23;20156;-88
2022/12/26 00:28:46;;;;;;;5.73;2.40;;;;;;;8.02;65.12;100039.78;6039481;23;20536;-88
2022/12/26 00:31:15;;;;;;;7.53;2.63;;;;;;;7.97;65.75;100046.03;6039447;23;20183;-88
2022/12/26 00:33:40;;;;;;;8.00;2.90;;;;;;;7.95;65.82;100051.31;6039947;23;20176;-87
2022/12/26 00:36:09;;;;;;;6.43;2.90;;;;;;;7.94;66.04;100049.59;6039397;23;20586;-88
2022/12/26 00:38:35;;;;;;;8.87;3.60;;;;;;;7.94;65.69;100052.19;6039726;23;20584;-88
2022/12/26 00:41:01;;;;;;;8.50;2.80;;;;;;;7.87;66.03;100061.09;6039432;23;20549;-88
2022/12/26 00:43:27;;;;;;;7.27;3.30;;;;;;;7.91;65.50;100061.88;6039423;23;20239;-87
2022/12/26 00:45:52;;;;;;;5.93;2.97;;;;;;;7.88;64.65;100056.75;6039426;23;20166;-88
2022/12/26 00:48:17;;;;;;;7.03;3.10;;;;;;;7.82;64.36;100060.38;6014583;23;20157;-88
2022/12/26 00:50:43;;;;;;;11.03;3.50;;;;;;;7.77;63.98;100058.78;6039621;23;20174;-88
2022/12/26 00:53:09;;;;;;;7.83;3.37;;;;;;;7.67;64.18;100062.53;6039665;23;20158;-88
2022/12/26 00:55:34;;;;;;;8.07;3.77;;;;;;;7.29;64.81;100058.25;6039323;23;20156;-88
2022/12/26 00:58:00;;;;;;;10.93;5.17;;;;;;;7.34;64.40;100067.69;6014500;23;20189;-87
2022/12/26 01:00:25;;;;;;;14.77;4.63;;;;;;;7.39;63.77;100059.75;6039606;23;20157;-88
2022/12/26 01:02:51;;;;;;;9.37;3.80;;;;;;;7.44;62.98;100073.56;6014539;23;20159;-88
2022/12/26 01:05:16;;;;;;;12.20;6.00;;;;;;;7.27;62.60;100073.97;6039316;23;20161;-88
2022/12/26 01:07:42;;;;;;;20.20;5.73;;;;;;;7.11;62.94;100069.13;6014437;23;20164;-88
2022/12/26 01:10:11;;;;;;;17.47;6.57;;;;;;;6.98;62.77;100075.53;6039163;23;20265;-88
2022/12/26 01:12:36;;;;;;;14.60;5.70;;;;;;;6.84;62.90;100075.00;6014298;23;20189;-88
2022/12/26 01:15:02;;;;;;;16.10;6.27;;;;;;;6.78;64.08;100073.41;6039244;23;20154;-88
2022/12/26 01:17:28;;;;;;;17.80;6.10;;;;;;;6.82;63.62;100069.81;6039546;23;20177;-87
2022/12/26 01:19:54;;;;;;;12.63;6.53;;;;;;;6.78;63.75;100071.66;6039040;23;20489;-87
2022/12/26 01:22:20;;;;;;;20.00;5.97;;;;;;;6.73;63.75;100078.69;6039187;23;20236;-87
2022/12/26 01:24:46;;;;;;;10.53;4.50;;;;;;;6.65;63.79;100079.78;6039138;23;20193;-87
2022/12/26 01:27:12;;;;;;;14.63;5.23;;;;;;;6.50;63.69;100086.13;6039211;23;20185;-87
2022/12/26 01:29:37;;;;;;;11.83;4.87;;;;;;;6.50;64.39;100088.75;6037878;23;20530;-87
2022/12/26 01:32:03;;;;;;;9.07;4.40;;;;;;;6.50;63.66;100088.75;6014291;23;20196;-88
2022/12/26 01:34:29;;;;;;;9.30;5.13;;;;;;;6.52;64.32;100099.16;6039720;23;20157;-87
2022/12/26 01:36:54;;;;;;;14.67;5.03;;;;;;;6.57;63.88;100098.16;6038889;23;20579;-87
2022/12/26 01:39:20;;;;;;;8.60;3.47;;;;;;;6.54;63.54;100097.38;6039102;23;20184;-87
2022/12/26 01:41:46;;;;;;;12.03;4.87;;;;;;;6.51;63.89;100092.22;6039289;23;20241;-88
2022/12/26 01:44:48;;;;;;;12.77;5.97;;;;;;;6.40;63.87;100099.38;6039741;23;20154;-87
2022/12/26 01:47:14;;;;;;;6.23;3.83;;;;;;;6.32;64.55;100098.69;6040940;23;20228;-87
2022/12/26 01:49:48;;;;;;;9.87;3.70;;;;;;;6.22;64.96;100098.00;6016458;23;20597;-87
2022/12/26 01:52:36;;;;;;;10.50;3.23;;;;;;;6.24;65.10;100088.41;6041558;23;20146;-87
2022/12/26 01:55:04;;;;;;;7.77;3.43;;;;;;;6.41;65.19;100088.97;6041240;23;20208;-87
2022/12/26 01:57:35;;;;;;;11.03;2.90;;;;;;;6.46;65.04;100079.28;6041261;23;20161;-87
2022/12/26 02:00:03;;;;;;;4.37;2.30;;;;;;;6.52;65.48;100073.97;6015942;23;20162;-87
2022/12/26 02:02:29;;;;;;;5.40;2.40;;;;;;;6.46;65.60;100068.88;6040866;23;20153;-87
2022/12/26 02:07:44;;;;;;;11.50;2.93;;;;;;;6.68;65.04;100064.06;6041295;23;20466;-86
2022/12/26 02:10:16;;;;;;;6.43;2.67;;;;;;;6.42;65.91;100066.38;6015841;23;20209;-87
2022/12/26 02:12:44;;;;;;;8.63;2.70;;;;;;;6.39;66.11;100077.72;6040629;23;20162;-86
2022/12/26 02:15:15;;;;;;;3.83;2.13;;;;;;;6.54;65.40;100069.56;6040138;23;20153;-87
2022/12/26 02:17:42;;;;;;;6.00;2.83;;;;;;;6.60;66.06;100073.81;6040418;23;20139;-87
2022/12/26 02:20:32;;;;;;;6.87;2.47;;;;;;;6.65;65.97;100075.41;6040683;23;20153;-86
2022/12/26 02:23:19;;;;;;;12.43;2.83;;;;;;;6.64;65.83;100071.09;6040165;23;20149;-87
2022/12/26 02:26:35;;;;;;;4.87;2.37;;;;;;;6.52;66.61;100073.09;6041007;23;20234;-87
2022/12/26 02:29:39;;;;;;;3.80;1.60;;;;;;;6.57;66.92;100072.13;5980264;23;20162;-87
2022/12/26 02:32:25;;;;;;;6.20;1.73;;;;;;;6.54;67.97;100074.78;6040250;23;20173;-86
2022/12/26 02:35:39;;;;;;;5.17;1.27;;;;;;;6.58;67.82;100079.03;6038235;23;20141;-86
2022/12/26 02:38:12;;;;;;;7.37;1.10;;;;;;;6.48;68.88;100074.91;5951589;24;20159;-86
2022/12/26 02:40:48;;;;;;;5.93;1.73;;;;;;;6.30;70.03;100077.91;6032382;23;20180;-87
2022/12/26 02:43:23;;;;;;;5.37;1.50;;;;;;;6.35;70.06;100081.25;6013290;23;20149;-86
2022/12/26 02:49:13;;;;;;;1.37;0.93;;;;;;;6.67;69.12;100084.06;6038081;23;20236;-86
2022/12/26 03:15:28;;;;;;;2.83;1.50;;;;;;;6.77;67.04;100122.03;6040645;23;20152;-87
2022/12/26 03:18:04;;;;;;;5.17;1.37;;;;;;;6.76;66.79;100138.56;6039221;23;20185;-87
2022/12/26 03:20:35;;;;;;;8.87;3.20;;;;;;;6.51;67.81;100139.09;6040438;23;20134;-87
2022/12/26 03:23:14;;;;;;;11.37;3.87;;;;;;;6.37;69.02;100136.75;6040559;23;20150;-86
2022/12/26 03:28:37;;;;;;;8.87;2.70;;;;;;;6.29;69.55;100136.03;6040870;23;20165;-87
2022/12/26 03:31:11;;;;;;;7.47;2.73;;;;;;;6.40;69.64;100130.63;6039939;23;20210;-87
2022/12/26 03:37:08;;;;;;;4.23;1.83;;;;;;;6.54;68.74;100100.84;6040557;23;20619;-88
2022/12/26 04:20:50;;;;;;;5.13;2.10;;;;;;;5.90;69.14;100109.03;6039738;23;20152;-87
2022/12/26 04:46:40;;;;;;;4.67;2.17;;;;;;;6.11;70.14;100099.97;6040145;23;20251;-87
2022/12/26 04:51:58;;;;;;;3.30;1.73;;;;;;;6.38;68.80;100107.25;6039685;23;20222;-87
2022/12/26 04:54:27;;;;;;;4.77;2.07;;;;;;;6.48;68.37;100107.91;6039706;23;20149;-87
2022/12/26 04:56:55;;;;;;;3.90;1.47;;;;;;;6.47;68.47;100112.25;6039231;23;20224;-87
2022/12/26 04:59:21;;;;;;;5.33;2.33;;;;;;;6.35;67.94;100117.72;6039924;23;20344;-87
2022/12/26 05:10:24;;;;;;;3.07;1.33;;;;;;;6.32;68.22;100122.97;6039578;23;20679;-87
2022/12/26 05:12:56;;;;;;;7.30;2.00;;;;;;;6.32;67.95;100125.56;6014941;23;20145;-87
2022/12/26 05:15:24;;;;;;;4.00;2.17;;;;;;;6.21;68.11;100130.13;6039373;23;20558;-88
2022/12/26 05:29:08;;;;;;;7.77;1.83;;;;;;;5.89;68.94;100135.09;6039986;23;20217;-88
2022/12/26 05:31:33;;;;;;;3.50;1.40;;;;;;;5.80;69.09;100136.06;6014079;23;20606;-87
2022/12/26 05:34:32;;;;;;;3.40;1.87;;;;;;;5.81;68.95;100143.00;6013340;23;20157;-88
2022/12/26 05:37:08;;;;;;;2.87;1.50;;;;;;;5.78;69.54;100134.38;6035107;23;20197;-89
2022/12/26 05:39:34;;;;;;;3.27;1.47;;;;;;;5.90;69.46;100129.84;6039965;23;20173;-87
2022/12/26 05:42:02;;;;;;;5.20;1.80;;;;;;;5.93;69.74;100140.19;6039385;23;20154;-86
2022/12/26 05:44:27;;;;;;;3.47;1.10;;;;;;;5.90;69.57;100139.38;6039991;23;20150;-86
2022/12/26 05:46:53;;;;;;;5.10;1.93;;;;;;;5.81;69.89;100147.34;6039287;23;20157;-84
2022/12/26 05:49:18;;;;;;;2.57;1.40;;;;;;;5.70;70.19;100142.31;6039074;23;20162;-84
2022/12/26 05:51:49;;;;;;;2.07;1.07;;;;;;;5.73;70.43;100138.81;6039029;23;20184;-84
2022/12/26 05:54:20;;;;;;;2.43;1.00;;;;;;;5.69;70.69;100139.72;6039483;23;20540;-82
2022/12/26 05:56:46;;;;;;;7.17;1.43;;;;;;;5.79;70.58;100136.09;6039207;23;20153;-87
2022/12/26 05:59:14;;;;;;;4.40;1.53;;;;;;;5.86;70.64;100142.94;6039391;23;20485;-86
2022/12/26 06:01:42;;;;;;;2.70;1.50;;;;;;;5.86;70.90;100149.00;6039082;23;20487;-86
2022/12/26 06:04:11;;;;;;;2.93;1.30;;;;;;;5.78;71.29;100155.19;6038290;23;20153;-86
2022/12/26 06:06:41;;;;;;;5.50;1.50;;;;;;;5.76;71.43;100154.38;6035214;23;20662;-85
2022/12/26 06:09:06;;;;;;;4.43;1.50;;;;;;;5.86;71.74;100150.75;6035643;23;20201;-87
2022/12/26 06:11:36;;;;;;;9.77;2.63;;;;;;;5.92;71.40;100148.88;6011357;23;20186;-87
2022/12/26 06:14:04;;;;;;;8.20;2.83;;;;;;;5.96;71.24;100149.69;6036783;23;20217;-85
2022/12/26 06:16:33;;;;;;;8.93;4.70;;;;;;;6.00;71.40;100146.19;6037258;23;20163;-84
2022/12/26 06:19:05;;;;;;;7.43;3.40;;;;;;;6.04;71.25;100148.69;6037173;23;20606;-85
2022/12/26 06:21:35;;;;;;;10.30;4.43;;;;;;;6.03;71.39;100152.16;6038951;23;20150;-85
2022/12/26 06:24:05;;;;;;;13.37;5.23;;;;;;;6.14;72.03;100150.22;6039693;23;20532;-84
2022/12/26 06:26:31;;;;;;;15.33;7.00;;;;;;;6.19;72.15;100150.13;6038949;23;20157;-84
2022/12/26 06:29:01;;;;;;;17.23;7.63;;;;;;;6.33;71.88;100166.38;6039295;23;20161;-84
2022/12/26 06:31:28;;;;;;;21.20;10.10;;;;;;;6.46;71.50;100162.63;6039560;23;20185;-85
2022/12/26 06:34:00;;;;;;;37.53;13.47;;;;;;;6.55;71.49;100157.22;6038811;23;20162;-84
2022/12/26 06:36:30;;;;;;;24.90;12.43;;;;;;;6.78;70.93;100167.19;6041312;23;20140;-84
2022/12/26 06:38:56;;;;;;;28.40;10.47;;;;;;;7.13;71.39;100166.41;6015730;23;20225;-84
2022/12/26 06:41:24;;;;;;;31.63;14.33;;;;;;;7.77;71.85;100158.81;6015872;23;20154;-85
2022/12/26 06:43:56;;;;;;;27.53;14.30;;;;;;;8.74;70.64;100153.59;6039443;23;20161;-84
2022/12/26 06:46:33;;;;;;;26.60;12.23;;;;;;;9.74;66.47;100148.72;6040712;23;20134;-85
2022/12/26 06:49:00;;;;;;;28.97;11.60;;;;;;;10.65;61.98;100150.75;6040587;23;20163;-85
2022/12/26 06:51:30;;;;;;;30.93;11.93;;;;;;;11.22;59.32;100150.31;6040373;23;20185;-86
2022/12/26 06:54:02;;;;;;;24.10;11.30;;;;;;;11.15;56.54;100156.72;6040089;23;20474;-85
2022/12/26 06:56:31;;;;;;;21.83;10.50;;;;;;;10.95;56.30;100148.78;6040269;23;20223;-85
2022/12/26 06:59:10;;;;;;;20.60;10.20;;;;;;;10.77;56.17;100166.03;6040019;23;20153;-85
2022/12/26 07:01:36;;;;;;;22.33;10.50;;;;;;;10.73;57.04;100163.59;6040325;23;20212;-85
2022/12/26 07:04:04;;;;;;;28.70;12.13;;;;;;;10.78;56.48;100165.13;6040056;23;20229;-86
2022/12/26 07:06:38;;;;;;;25.60;10.70;;;;;;;10.69;55.83;100168.06;6040191;23;20168;-85
2022/12/26 07:09:16;;;;;;;34.20;14.50;;;;;;;10.44;56.57;100160.25;6038521;23;20296;-85
2022/12/26 07:11:49;;;;;;;38.50;17.87;;;;;;;10.34;56.95;100171.13;6039841;23;20614;-86
2022/12/26 07:14:16;;;;;;;52.23;23.90;;;;;;;10.38;56.87;100165.72;6040523;23;20480;-85
2022/12/26 07:16:44;;;;;;;58.23;28.00;;;;;;;10.30;56.80;100167.75;6040123;23;20174;-86
2022/12/26 07:19:12;;;;;;;54.00;25.53;;;;;;;10.33;57.37;100172.03;6038824;23;20161;-86
2022/12/26 07:21:42;;;;;;;50.87;23.33;;;;;;;10.31;57.50;100177.31;6040111;23;20216;-85
2022/12/26 07:24:17;;;;;;;45.37;19.63;;;;;;;10.20;57.71;100174.22;6038852;23;20489;-85
2022/12/26 07:26:48;;;;;;;40.60;18.93;;;;;;;10.12;57.96;100172.72;6039706;23;20156;-85
2022/12/26 07:29:18;;;;;;;36.83;16.83;;;;;;;10.06;58.05;100173.81;6016135;23;20244;-85
2022/12/26 07:31:50;;;;;;;34.47;17.40;;;;;;;9.90;57.98;100170.84;6039678;23;20173;-85
2022/12/26 07:34:23;;;;;;;31.97;15.23;;;;;;;9.90;58.33;100172.63;6040097;23;20154;-85
2022/12/26 07:36:54;;;;;;;29.67;13.10;;;;;;;9.87;58.55;100172.72;6039987;23;20154;-85
2022/12/26 07:39:21;;;;;;;26.67;11.60;;;;;;;9.80;58.71;100173.84;6039550;23;20161;-84
2022/12/26 07:41:58;;;;;;;24.93;12.90;;;;;;;9.77;59.08;100176.53;6036689;23;20685;-85
2022/12/26 07:44:43;;;;;;;27.37;11.80;;;;;;;9.43;60.32;100189.00;6036083;23;20156;-84
2022/12/26 07:47:10;;;;;;;30.03;13.47;;;;;;;9.63;60.81;100183.97;6032526;23;20172;-85
2022/12/26 07:49:37;;;;;;;23.40;12.30;;;;;;;9.79;60.19;100177.34;6037635;23;20181;-84
2022/12/26 07:52:03;;;;;;;24.93;11.43;;;;;;;9.94;60.00;100174.22;6037636;23;20191;-85
2022/12/26 07:54:31;;;;;;;29.60;11.13;;;;;;;9.88;59.60;100184.88;6012767;23;20755;-85
2022/12/26 07:57:03;;;;;;;27.60;10.93;;;;;;;10.12;59.80;100188.44;6038628;23;20279;-85
2022/12/26 07:59:33;;;;;;;20.07;9.83;;;;;;;10.19;60.50;100185.63;6039811;23;20150;-85
2022/12/26 08:02:03;;;;;;;22.63;11.00;;;;;;;10.33;59.60;100191.22;6037224;23;20217;-85
2022/12/26 08:04:31;;;;;;;22.40;10.33;;;;;;;10.54;59.92;100201.84;6037214;23;20162;-84
2022/12/26 08:06:58;;;;;;;17.43;8.00;;;;;;;10.56;59.48;100200.91;6035794;23;20471;-85
2022/12/26 08:09:25;;;;;;;14.40;6.50;;;;;;;10.64;59.33;100200.66;6036868;23;20209;-85
2022/12/26 08:11:51;;;;;;;18.30;7.63;;;;;;;10.66;58.15;100201.44;6037158;23;20216;-85
2022/12/26 08:14:18;;;;;;;16.80;6.23;;;;;;;10.78;58.58;100198.34;6012531;23;20185;-86
2022/12/26 08:16:44;;;;;;;8.43;5.00;;;;;;;10.86;58.09;100198.94;6039411;23;20165;-85
2022/12/26 08:19:11;;;;;;;21.63;6.93;;;;;;;10.88;57.39;100208.47;6039641;23;20154;-85
2022/12/26 08:21:38;;;;;;;12.90;6.67;;;;;;;10.91;57.86;100215.38;6039578;23;20150;-85
2022/12/26 08:24:05;;;;;;;13.83;6.27;;;;;;;11.02;57.36;100213.19;6014655;23;20649;-85
2022/12/26 08:26:31;;;;;;;13.93;6.97;;;;;;;11.05;57.91;100210.47;6039610;23;20154;-85
2022/12/26 08:28:59;;;;;;;18.10;7.37;;;;;;;11.24;57.75;100205.38;6040154;23;20154;-87
2022/12/26 08:31:25;;;;;;;15.00;6.97;;;;;;;11.35;57.72;100208.44;6039158;23;20618;-86
2022/12/26 08:33:56;;;;;;;19.00;7.03;;;;;;;11.32;57.66;100208.56;6039801;23;20224;-85
2022/12/26 08:36:23;;;;;;;18.30;7.77;;;;;;;11.48;57.58;100193.91;6039664;23;20455;-85
2022/12/26 08:38:57;;;;;;;18.30;7.47;;;;;;;11.53;56.51;100207.75;6039309;23;20460;-85
2022/12/26 08:41:27;;;;;;;14.90;6.80;;;;;;;11.49;56.41;100199.13;6039300;23;20139;-85
2022/12/26 08:43:54;;;;;;;15.67;8.50;;;;;;;11.68;55.88;100192.25;6014514;23;20161;-87
2022/12/26 08:46:20;;;;;;;13.87;7.17;;;;;;;11.82;55.51;100185.59;6039740;23;20222;-86
2022/12/26 08:48:49;;;;;;;19.03;7.47;;;;;;;12.06;55.14;100179.31;6015109;23;20161;-86
2022/12/26 08:51:23;;;;;;;20.70;8.17;;;;;;;12.03;54.55;100176.78;6039273;23;20208;-86
2022/12/26 08:53:54;;;;;;;17.87;8.07;;;;;;;12.17;53.74;100172.69;6038406;23;20138;-86
2022/12/26 08:56:23;;;;;;;13.90;7.00;;;;;;;12.42;53.94;100169.00;6039298;23;20147;-86
2022/12/26 08:58:51;;;;;;;12.43;6.47;;;;;;;12.56;53.55;100172.72;6039416;23;20168;-86
2022/12/26 09:01:23;;;;;;;12.50;5.50;;;;;;;12.62;52.61;100172.47;6039212;23;20211;-86
2022/12/26 09:04:02;;;;;;;15.13;7.50;;;;;;;12.82;52.23;100179.44;6014277;23;20146;-86
2022/12/26 09:06:32;;;;;;;14.40;6.83;;;;;;;12.88;51.52;100174.78;6039333;23;20562;-86
2022/12/26 09:08:59;;;;;;;16.47;7.17;;;;;;;13.03;51.61;100169.72;6039463;23;20207;-86
2022/12/26 09:11:26;;;;;;;16.60;7.37;;;;;;;13.14;52.12;100168.34;6038624;23;20188;-86
2022/12/26 09:13:58;;;;;;;17.73;7.77;;;;;;;13.30;50.98;100150.06;6039802;23;20153;-86
2022/12/26 09:16:29;;;;;;;15.87;7.20;;;;;;;13.45;51.31;100144.91;6038362;23;20225;-86
2022/12/26 09:19:02;;;;;;;18.43;8.43;;;;;;;13.61;50.84;100138.88;6039212;23;20149;-86
2022/12/26 09:21:31;;;;;;;15.47;7.43;;;;;;;13.74;49.82;100138.22;6038239;23;20501;-86
2022/12/26 09:24:04;;;;;;;17.60;7.30;;;;;;;13.71;49.41;100135.72;6039230;23;20158;-87
2022/12/26 09:26:31;;;;;;;14.37;5.47;;;;;;;13.74;48.67;100132.94;6039413;23;20153;-86
2022/12/26 09:28:59;;;;;;;14.07;6.37;;;;;;;13.90;49.31;100120.72;5991256;23;20531;-86
2022/12/26 09:31:28;;;;;;;12.90;5.77;;;;;;;13.93;48.93;100123.19;6039447;23;20641;-86
2022/12/26 09:33:55;;;;;;;11.03;4.83;;;;;;;14.04;48.54;100112.97;6038973;23;20585;-87
2022/12/26 09:36:25;;;;;;;10.90;5.47;;;;;;;13.88;47.73;100109.41;6039142;23;20149;-86
2022/12/26 09:38:54;;;;;;;9.17;4.20;;;;;;;13.84;48.73;100105.19;6038450;23;20168;-86
2022/12/26 09:41:55;;;;;;;13.50;5.03;;;;;;;14.10;48.73;100099.44;6039017;23;20632;-87
2022/12/26 09:44:49;;;;;;;11.03;4.70;;;;;;;14.23;49.30;100096.19;6014207;23;20173;-85
2022/12/26 09:47:55;;;;;;;15.50;5.07;;;;;;;14.42;48.26;100083.75;6039366;23;20146;-85
2022/12/26 09:50:37;;;;;;;10.93;4.83;;;;;;;14.58;48.29;100085.50;6019014;23;20516;-86
2022/12/26 09:53:42;;;;;;;11.50;4.97;;;;;;;14.83;47.98;100077.13;6012114;23;20230;-86
2022/12/26 09:56:15;;;;;;;20.70;6.73;;;;;;;14.99;47.46;100077.13;5926930;24;20170;-85
2022/12/26 09:58:58;;;;;;;12.70;5.20;;;;;;;14.80;47.42;100074.63;6000309;23;20295;-86
2022/12/26 10:01:33;;;;;;;9.67;4.00;;;;;;;15.13;47.93;100070.13;6036262;23;20683;-85
2022/12/26 10:04:03;;;;;;;9.37;4.50;;;;;;;15.32;47.00;100070.78;6034529;23;20192;-86
2022/12/26 10:06:44;;;;;;;9.23;4.03;;;;;;;15.36;47.42;100060.88;6036254;23;20141;-86
2022/12/26 10:09:47;;;;;;;15.60;5.13;;;;;;;15.43;47.21;100070.16;6014008;23;20220;-87
2022/12/26 10:12:34;;;;;;;7.83;3.47;;;;;;;15.65;46.51;100067.16;6037374;23;20193;-86
2022/12/26 10:15:39;;;;;;;8.60;4.07;;;;;;;15.77;46.30;100061.16;6038831;23;20138;-86
2022/12/26 10:18:23;;;;;;;11.67;4.57;;;;;;;16.11;44.88;100052.91;6039655;23;20158;-86
2022/12/26 10:21:14;;;;;;;12.47;4.40;;;;;;;15.64;45.61;100062.81;6041194;23;20162;-86
2022/12/26 10:23:56;;;;;;;13.47;6.77;;;;;;;15.27;46.95;100053.50;6041119;23;20138;-86
2022/12/26 10:26:25;;;;;;;8.73;3.97;;;;;;;15.70;46.55;100046.56;6016424;23;20150;-86
2022/12/26 10:29:09;;;;;;;9.30;3.80;;;;;;;16.03;46.49;100039.31;6041374;23;20455;-86
2022/12/26 10:31:46;;;;;;;8.67;3.20;;;;;;;16.39;45.40;100034.41;6040340;23;20169;-87
2022/12/26 10:34:35;;;;;;;11.73;3.97;;;;;;;16.50;44.19;100037.22;6015787;23;20231;-87
2022/12/26 10:37:19;;;;;;;8.30;3.87;;;;;;;16.65;44.20;100034.56;6040478;23;20328;-86
2022/12/26 10:39:57;;;;;;;10.73;3.90;;;;;;;16.13;45.57;100035.16;6040611;23;20142;-86
2022/12/26 10:42:34;;;;;;;10.97;4.30;;;;;;;16.54;45.15;100038.75;6041358;23;20707;-86
2022/12/26 10:45:01;;;;;;;7.83;4.27;;;;;;;16.73;44.90;100035.81;6040992;23;20134;-87
2022/12/26 10:47:40;;;;;;;9.20;4.33;;;;;;;16.83;44.20;100030.75;6016014;23;20192;-87
2022/12/26 10:50:13;;;;;;;12.63;4.67;;;;;;;16.77;45.15;100017.94;6015643;23;20234;-87
2022/12/26 10:52:39;;;;;;;9.53;4.50;;;;;;;16.89;44.56;100011.84;6040764;23;20142;-87
2022/12/26 10:55:06;;;;;;;11.53;4.60;;;;;;;16.85;44.62;100018.31;6040551;23;20550;-87
2022/12/26 10:57:35;;;;;;;13.37;4.10;;;;;;;16.87;45.06;100024.34;6040792;23;20232;-87
2022/12/26 11:00:12;;;;;;;8.37;4.13;;;;;;;17.00;44.28;100019.94;6041169;23;20184;-87
2022/12/26 11:02:38;;;;;;;6.93;3.93;;;;;;;17.02;44.42;100012.75;6041290;23;20152;-87
2022/12/26 11:05:05;;;;;;;10.70;4.17;;;;;;;17.01;43.90;100003.09;6039429;23;20166;-86
2022/12/26 11:07:34;;;;;;;7.73;3.50;;;;;;;17.11;43.68;100007.69;6040544;23;20158;-87
2022/12/26 11:10:01;;;;;;;6.30;3.73;;;;;;;16.88;43.77;100003.03;6015567;23;20703;-87
2022/12/26 11:12:38;;;;;;;7.60;3.33;;;;;;;16.94;43.97;100004.44;6040390;23;20182;-87
2022/12/26 11:15:16;;;;;;;7.07;2.93;;;;;;;17.06;44.14;99991.25;6040736;23;20457;-87
2022/12/26 11:17:43;;;;;;;7.33;3.03;;;;;;;17.17;44.02;99996.69;6039208;23;20490;-87
2022/12/26 11:20:09;;;;;;;11.87;3.73;;;;;;;17.01;43.95;99989.84;6040211;23;20153;-87
2022/12/26 11:22:34;;;;;;;5.13;2.90;;;;;;;17.02;43.69;99991.56;6040718;23;20233;-87
2022/12/26 11:25:09;;;;;;;7.23;3.03;;;;;;;17.07;44.54;99989.47;6040231;23;20257;-87
2022/12/26 11:27:39;;;;;;;6.07;3.23;;;;;;;17.43;44.17;99980.84;6015583;23;20168;-87
2022/12/26 11:30:14;;;;;;;6.57;2.47;;;;;;;17.61;43.82;99979.69;6040284;23;20204;-86
2022/12/26 11:32:41;;;;;;;6.53;2.37;;;;;;;17.83;43.10;99969.28;6040351;23;20161;-87
2022/12/26 11:35:18;;;;;;;6.40;2.53;;;;;;;17.98;42.56;99968.22;6040257;23;20154;-87
2022/12/26 11:37:45;;;;;;;5.87;2.97;;;;;;;17.93;42.27;99974.78;6040984;23;20149;-87
2022/12/26 11:40:31;;;;;;;8.00;2.73;;;;;;;17.83;42.32;99968.41;6040838;23;20535;-87
2022/12/26 11:42:59;;;;;;;5.90;2.30;;;;;;;17.95;42.17;99967.59;6040612;23;20154;-87
2022/12/26 11:45:30;;;;;;;8.93;2.70;;;;;;;18.02;42.20;99972.38;6040575;23;20163;-87
2022/12/26 11:47:59;;;;;;;5.50;2.27;;;;;;;18.22;41.94;99965.63;6040244;23;20574;-87
2022/12/26 11:50:28;;;;;;;5.50;2.60;;;;;;;18.25;41.95;99957.47;6015140;23;20209;-87
2022/12/26 11:52:57;;;;;;;7.73;2.60;;;;;;;18.32;41.55;99958.72;6040289;23;20154;-87
2022/12/26 11:55:22;;;;;;;6.53;3.37;;;;;;;18.31;41.42;99957.03;6039789;23;20174;-88
2022/12/26 11:58:14;;;;;;;6.53;2.30;;;;;;;18.05;43.12;99955.38;6039827;23;20638;-88
2022/12/26 12:00:49;;;;;;;7.43;3.43;;;;;;;17.94;42.92;99957.94;6015113;23;20578;-88
2022/12/26 12:03:25;;;;;;;9.30;3.20;;;;;;;17.93;43.15;99964.19;6040055;23;20141;-88
2022/12/26 12:06:12;;;;;;;6.27;3.20;;;;;;;17.79;43.40;99958.03;6040606;23;20142;-88
2022/12/26 12:08:43;;;;;;;7.40;3.17;;;;;;;17.86;43.32;99952.31;6039606;23;20174;-88
2022/12/26 12:11:30;;;;;;;7.27;3.03;;;;;;;17.67;43.90;99947.41;6040317;23;20166;-87
2022/12/26 12:14:00;;;;;;;5.57;3.20;;;;;;;17.93;43.14;99942.94;6040412;23;20157;-87
2022/12/26 12:16:53;;;;;;;5.97;2.87;;;;;;;17.97;43.22;99936.50;6040614;23;20151;-87
2022/12/26 12:19:22;;;;;;;9.20;3.33;;;;;;;18.11;42.52;99933.69;6039939;23;20164;-87
2022/12/26 12:22:17;;;;;;;6.03;2.63;;;;;;;18.36;42.07;99931.00;6040203;23;20274;-87
2022/12/26 12:25:07;;;;;;;6.70;3.07;;;;;;;18.38;42.47;99935.25;6040259;23;20166;-87
2022/12/26 12:27:45;;;;;;;7.70;3.17;;;;;;;18.32;41.81;99940.13;6040177;23;20142;-87
2022/12/26 12:30:25;;;;;;;8.40;3.57;;;;;;;17.99;42.25;99942.53;6014359;23;20153;-88
2022/12/26 12:33:09;;;;;;;6.20;2.43;;;;;;;18.13;42.69;99934.47;6039368;23;20138;-87
2022/12/26 12:35:37;;;;;;;8.60;2.63;;;;;;;18.28;42.60;99928.06;6039074;23;20173;-87
2022/12/26 12:38:18;;;;;;;5.37;2.80;;;;;;;18.35;41.79;99939.91;6037768;23;20154;-87
2022/12/26 12:41:07;;;;;;;5.17;2.57;;;;;;;18.29;42.27;99937.72;6039100;23;20182;-87
2022/12/26 12:43:50;;;;;;;6.70;2.47;;;;;;;18.16;42.51;99948.34;6027173;23;20157;-88
2022/12/26 12:46:30;;;;;;;7.87;3.17;;;;;;;18.12;42.04;99946.03;6038981;23;20181;-88
2022/12/26 12:48:56;;;;;;;6.17;3.07;;;;;;;17.95;42.87;99943.72;6039623;23;20497;-87
2022/12/26 12:51:32;;;;;;;6.73;3.10;;;;;;;18.07;43.15;99946.34;6039540;23;20180;-88
2022/12/26 12:54:20;;;;;;;7.43;3.40;;;;;;;17.88;43.10;99950.38;6014692;23;20470;-87
2022/12/26 12:56:45;;;;;;;7.13;3.20;;;;;;;17.59;43.60;99947.09;6040256;23;20142;-88
2022/12/26 12:59:19;;;;;;;9.30;3.17;;;;;;;17.44;44.02;99951.63;6039573;23;20239;-87
2022/12/26 13:01:49;;;;;;;16.10;5.50;;;;;;;17.49;43.58;99944.19;6039602;23;20133;-87
2022/12/26 13:04:27;;;;;;;13.27;6.80;;;;;;;17.52;44.31;99951.94;6039238;23;20158;-87
2022/12/26 13:06:55;;;;;;;10.20;3.60;;;;;;;17.46;44.29;99956.78;6040191;23;20144;-88
2022/12/26 13:09:37;;;;;;;7.67;3.60;;;;;;;17.52;43.80;99959.91;6039418;23;20169;-87
2022/12/26 13:12:10;;;;;;;7.17;3.60;;;;;;;17.44;43.80;99961.34;6015839;23;20257;-87
2022/12/26 13:14:41;;;;;;;7.00;3.60;;;;;;;17.29;44.63;99955.31;6014595;23;20161;-87
2022/12/26 13:17:12;;;;;;;7.30;3.37;;;;;;;17.36;44.43;99963.69;6039841;23;20148;-87
2022/12/26 13:19:46;;;;;;;8.77;3.73;;;;;;;17.46;43.97;99954.16;6040016;23;20170;-87
2022/12/26 13:22:24;;;;;;;8.73;3.80;;;;;;;17.42;43.92;99957.97;6039487;23;20134;-87
2022/12/26 13:25:01;;;;;;;9.17;3.30;;;;;;;17.67;43.93;99953.56;6014128;23;20181;-87
2022/12/26 13:27:31;;;;;;;6.73;3.70;;;;;;;17.34;44.22;99949.69;6039625;23;20476;-87
2022/12/26 13:29:56;;;;;;;6.80;3.50;;;;;;;17.24;44.38;99952.13;6039716;23;20153;-87
2022/12/26 13:32:25;;;;;;;8.00;3.37;;;;;;;17.47;44.41;99948.75;6039195;23;20207;-88
2022/12/26 13:34:53;;;;;;;7.23;3.70;;;;;;;17.59;43.99;99940.00;6039697;23;20164;-87
2022/12/26 13:37:34;;;;;;;9.47;4.13;;;;;;;17.59;44.45;99940.00;6039731;23;20154;-87
2022/12/26 13:40:02;;;;;;;6.20;2.87;;;;;;;17.64;44.02;99937.88;6014544;23;20181;-87
2022/12/26 13:45:41;;;;;;;6.43;3.37;;;;;;;17.36;44.46;99937.16;6040958;23;20573;-87
2022/12/26 13:48:15;;;;;;;10.07;3.70;;;;;;;17.37;44.29;99937.09;6041851;23;20150;-88
2022/12/26 13:50:46;;;;;;;8.57;4.23;;;;;;;17.30;45.15;99941.09;6041473;23;20241;-88
2022/12/26 13:53:23;;;;;;;9.27;4.17;;;;;;;17.44;44.54;99935.72;6041189;23;20161;-87
2022/12/26 13:56:10;;;;;;;8.63;3.57;;;;;;;17.55;44.32;99933.22;6016333;23;20158;-87
2022/12/26 13:58:54;;;;;;;9.73;3.67;;;;;;;17.60;43.62;99935.53;5984390;23;20166;-87